createdAt,value
2018-07-02T00:00:18.612Z,28.299999999999997
2018-07-02T00:02:18.620Z,28.299999999999997
2018-07-02T00:04:18.903Z,28.299999999999997
2018-07-02T00:06:19.010Z,27.799999999999997
2018-07-02T00:08:19.143Z,28.299999999999997
2018-07-02T00:10:19.275Z,27.200000000000003
2018-07-02T00:12:19.400Z,28.299999999999997
2018-07-02T00:14:19.462Z,27.799999999999997
2018-07-02T00:16:19.755Z,28.299999999999997
2018-07-02T00:18:19.941Z,28.299999999999997
2018-07-02T00:20:19.834Z,28.299999999999997
2018-07-02T00:22:20.200Z,28.299999999999997
2018-07-02T00:24:20.252Z,27.799999999999997
2018-07-02T00:26:20.121Z,27.200000000000003
2018-07-02T00:28:20.614Z,27.799999999999997
2018-07-02T00:30:20.739Z,27.799999999999997
2018-07-02T00:32:20.681Z,27.799999999999997
2018-07-02T00:34:20.847Z,28.299999999999997
2018-07-02T00:36:20.914Z,28.299999999999997
2018-07-02T00:38:21.283Z,28.299999999999997
2018-07-02T00:40:21.366Z,28.299999999999997
2018-07-02T00:42:21.495Z,27.200000000000003
2018-07-02T00:44:21.467Z,27.200000000000003
2018-07-02T00:46:21.939Z,27.200000000000003
2018-07-02T00:48:21.875Z,28.299999999999997
2018-07-02T00:50:21.859Z,27.799999999999997
2018-07-02T00:52:22.253Z,28.299999999999997
2018-07-02T00:54:22.296Z,27.799999999999997
2018-07-02T00:56:22.500Z,28.299999999999997
2018-07-02T00:58:22.835Z,27.200000000000003
2018-07-02T01:00:22.836Z,27.799999999999997
2018-07-02T01:02:22.777Z,27.799999999999997
2018-07-02T01:04:22.970Z,28.299999999999997
2018-07-02T01:06:22.989Z,28.299999999999997
2018-07-02T01:08:23.079Z,27.799999999999997
2018-07-02T01:10:23.434Z,28.299999999999997
2018-07-02T01:12:23.709Z,27.799999999999997
2018-07-02T01:14:23.656Z,27.799999999999997
2018-07-02T01:16:24.100Z,28.299999999999997
2018-07-02T01:18:23.985Z,27.799999999999997
2018-07-02T01:20:24.035Z,28.299999999999997
2018-07-02T01:22:24.720Z,27.799999999999997
2018-07-02T01:24:24.259Z,28.299999999999997
2018-07-02T01:26:24.416Z,27.799999999999997
2018-07-02T01:28:24.880Z,27.799999999999997
2018-07-02T01:30:24.838Z,28.299999999999997
2018-07-02T01:32:24.941Z,28.299999999999997
2018-07-02T01:34:25.380Z,28.299999999999997
2018-07-02T01:36:25.191Z,28.299999999999997
2018-07-02T01:38:25.493Z,28.299999999999997
2018-07-02T01:40:25.601Z,28.299999999999997
2018-07-02T01:42:25.755Z,27.799999999999997
2018-07-02T01:44:26.213Z,27.799999999999997
2018-07-02T01:46:26.134Z,28.299999999999997
2018-07-02T01:48:26.304Z,28.299999999999997
2018-07-02T01:50:26.535Z,28.299999999999997
2018-07-02T01:52:26.972Z,28.299999999999997
2018-07-02T01:54:26.684Z,28.299999999999997
2018-07-02T01:56:29.066Z,28.299999999999997
2018-07-02T01:58:32.197Z,27.799999999999997
2018-07-02T02:00:27.164Z,28.299999999999997
2018-07-02T02:02:27.505Z,28.299999999999997
2018-07-02T02:04:27.638Z,28.299999999999997
2018-07-02T02:06:27.830Z,28.299999999999997
2018-07-02T02:08:27.749Z,28.299999999999997
2018-07-02T02:10:28.082Z,28.299999999999997
2018-07-02T02:12:28.204Z,28.299999999999997
2018-07-02T02:14:28.186Z,28.299999999999997
2018-07-02T02:16:28.726Z,28.299999999999997
2018-07-02T02:18:28.559Z,28.9
2018-07-02T02:20:28.875Z,28.299999999999997
2018-07-02T02:22:29.136Z,28.299999999999997
2018-07-02T02:24:29.245Z,28.299999999999997
2018-07-02T02:26:29.198Z,27.799999999999997
2018-07-02T02:28:29.687Z,28.299999999999997
2018-07-02T02:30:29.884Z,28.299999999999997
2018-07-02T02:32:29.644Z,28.299999999999997
2018-07-02T02:34:29.862Z,28.299999999999997
2018-07-02T02:36:30.476Z,28.299999999999997
2018-07-02T02:38:30.262Z,28.299999999999997
2018-07-02T02:40:30.488Z,27.799999999999997
2018-07-02T02:42:30.449Z,28.299999999999997
2018-07-02T02:44:30.713Z,28.299999999999997
2018-07-02T02:46:30.879Z,28.299999999999997
2018-07-02T02:48:31.340Z,28.299999999999997
2018-07-02T02:50:31.384Z,28.299999999999997
2018-07-02T02:52:31.186Z,28.299999999999997
2018-07-02T02:54:31.427Z,28.299999999999997
2018-07-02T02:56:31.812Z,28.299999999999997
2018-07-02T02:58:31.664Z,28.299999999999997
2018-07-02T03:00:32.035Z,28.299999999999997
2018-07-02T03:02:32.018Z,28.299999999999997
2018-07-02T03:04:32.200Z,28.299999999999997
2018-07-02T03:06:32.405Z,28.299999999999997
2018-07-02T03:08:32.872Z,28.299999999999997
2018-07-02T03:10:32.986Z,28.299999999999997
2018-07-02T03:12:33.450Z,27.799999999999997
2018-07-02T03:14:33.297Z,28.299999999999997
2018-07-02T03:16:33.492Z,28.299999999999997
2018-07-02T03:18:33.630Z,28.299999999999997
2018-07-02T03:20:33.737Z,28.299999999999997
2018-07-02T03:22:34.092Z,27.799999999999997
2018-07-02T03:24:34.292Z,28.299999999999997
2018-07-02T03:26:34.230Z,28.299999999999997
2018-07-02T03:28:34.359Z,28.299999999999997
2018-07-02T03:30:34.836Z,28.299999999999997
2018-07-02T03:32:35.094Z,28.299999999999997
2018-07-02T03:34:35.068Z,28.299999999999997
2018-07-02T03:36:35.407Z,27.799999999999997
2018-07-02T03:38:35.324Z,27.200000000000003
2018-07-02T03:40:35.319Z,28.299999999999997
2018-07-02T03:42:35.589Z,28.299999999999997
2018-07-02T03:44:35.568Z,28.299999999999997
2018-07-02T03:46:35.863Z,28.299999999999997
2018-07-02T03:48:35.944Z,28.299999999999997
2018-07-02T03:50:36.115Z,28.299999999999997
2018-07-02T03:52:36.238Z,28.299999999999997
2018-07-02T03:54:36.326Z,27.799999999999997
2018-07-02T03:56:36.498Z,28.299999999999997
2018-07-02T03:58:36.479Z,28.299999999999997
2018-07-02T04:00:36.743Z,28.299999999999997
2018-07-02T04:02:36.745Z,28.299999999999997
2018-07-02T04:04:36.915Z,28.299999999999997
2018-07-02T04:06:37.395Z,27.799999999999997
2018-07-02T04:08:37.325Z,28.299999999999997
2018-07-02T04:10:37.449Z,27.799999999999997
2018-07-02T04:12:37.576Z,28.299999999999997
2018-07-02T04:14:37.832Z,27.799999999999997
2018-07-02T04:16:37.792Z,27.799999999999997
2018-07-02T04:18:38.279Z,27.799999999999997
2018-07-02T04:20:38.079Z,28.299999999999997
2018-07-02T04:22:38.372Z,28.299999999999997
2018-07-02T04:24:38.525Z,28.299999999999997
2018-07-02T04:26:38.920Z,28.299999999999997
2018-07-02T04:28:38.757Z,28.299999999999997
2018-07-02T04:30:38.750Z,28.299999999999997
2018-07-02T04:32:39.102Z,27.799999999999997
2018-07-02T04:34:39.293Z,27.799999999999997
2018-07-02T04:36:39.273Z,27.799999999999997
2018-07-02T04:38:39.372Z,28.299999999999997
2018-07-02T04:40:40.084Z,27.799999999999997
2018-07-02T04:42:39.678Z,27.200000000000003
2018-07-02T04:44:40.030Z,27.799999999999997
2018-07-02T04:46:40.382Z,27.200000000000003
2018-07-02T04:48:40.340Z,27.200000000000003
2018-07-02T04:50:40.633Z,27.799999999999997
2018-07-02T04:52:40.634Z,27.799999999999997
2018-07-02T04:54:40.619Z,27.200000000000003
2018-07-02T04:56:41.034Z,27.200000000000003
2018-07-02T04:58:41.055Z,26.700000000000003
2018-07-02T05:00:41.220Z,27.200000000000003
2018-07-02T05:02:41.423Z,27.200000000000003
2018-07-02T05:04:41.753Z,26.200000000000003
2018-07-02T05:06:41.580Z,26.200000000000003
2018-07-02T05:08:42.027Z,26.700000000000003
2018-07-02T05:10:41.943Z,26.700000000000003
2018-07-02T05:12:42.328Z,26.700000000000003
2018-07-02T05:14:42.409Z,27.200000000000003
2018-07-02T05:16:42.556Z,27.799999999999997
2018-07-02T05:18:42.603Z,27.200000000000003
2018-07-02T05:20:42.719Z,27.200000000000003
2018-07-02T05:22:42.862Z,27.200000000000003
2018-07-02T05:24:43.037Z,27.799999999999997
2018-07-02T05:26:43.379Z,27.200000000000003
2018-07-02T05:28:43.647Z,27.799999999999997
2018-07-02T05:30:43.583Z,27.799999999999997
2018-07-02T05:32:43.848Z,27.200000000000003
2018-07-02T05:34:44.005Z,27.799999999999997
2018-07-02T05:36:44.120Z,27.799999999999997
2018-07-02T05:38:44.168Z,27.200000000000003
2018-07-02T05:40:44.312Z,27.799999999999997
2018-07-02T05:42:44.687Z,27.799999999999997
2018-07-02T05:44:44.838Z,27.799999999999997
2018-07-02T05:46:45.158Z,27.799999999999997
2018-07-02T05:48:44.881Z,28.299999999999997
2018-07-02T05:50:45.404Z,28.299999999999997
2018-07-02T05:52:45.611Z,28.299999999999997
2018-07-02T05:54:45.376Z,28.299999999999997
2018-07-02T05:56:45.635Z,27.799999999999997
2018-07-02T05:58:45.894Z,27.799999999999997
2018-07-02T06:00:45.942Z,27.799999999999997
2018-07-02T06:02:45.881Z,28.299999999999997
2018-07-02T06:04:46.044Z,28.299999999999997
2018-07-02T06:06:46.212Z,27.799999999999997
2018-07-02T06:08:46.505Z,28.299999999999997
2018-07-02T06:10:46.607Z,28.299999999999997
2018-07-02T06:12:46.551Z,28.299999999999997
2018-07-02T06:14:48.749Z,27.799999999999997
2018-07-02T06:16:46.797Z,27.799999999999997
2018-07-02T06:18:47.037Z,27.799999999999997
2018-07-02T06:20:47.217Z,28.299999999999997
2018-07-02T06:22:47.498Z,28.299999999999997
2018-07-02T06:24:47.301Z,28.299999999999997
2018-07-02T06:26:47.620Z,28.299999999999997
2018-07-02T06:28:47.727Z,27.799999999999997
2018-07-02T06:30:47.685Z,27.799999999999997
2018-07-02T06:32:47.976Z,28.299999999999997
2018-07-02T06:34:48.225Z,28.299999999999997
2018-07-02T06:36:48.103Z,27.799999999999997
2018-07-02T06:38:48.344Z,28.299999999999997
2018-07-02T06:40:48.327Z,27.799999999999997
2018-07-02T06:42:48.477Z,27.799999999999997
2018-07-02T06:44:48.722Z,28.299999999999997
2018-07-02T06:46:48.999Z,27.799999999999997
2018-07-02T06:48:48.902Z,28.299999999999997
2018-07-02T06:50:49.187Z,28.299999999999997
2018-07-02T06:52:49.274Z,27.799999999999997
2018-07-02T06:54:49.318Z,27.799999999999997
2018-07-02T06:56:49.767Z,28.299999999999997
2018-07-02T06:58:50.034Z,27.799999999999997
2018-07-02T07:00:49.876Z,28.299999999999997
2018-07-02T07:02:50.300Z,28.299999999999997
2018-07-02T07:04:50.281Z,28.299999999999997
2018-07-02T07:06:50.412Z,28.299999999999997
2018-07-02T07:08:50.520Z,27.799999999999997
2018-07-02T07:10:50.798Z,28.299999999999997
2018-07-02T07:12:50.689Z,28.299999999999997
2018-07-02T07:14:50.732Z,28.299999999999997
2018-07-02T07:16:51.305Z,28.299999999999997
2018-07-02T07:18:51.038Z,28.299999999999997
2018-07-02T07:20:51.331Z,28.299999999999997
2018-07-02T07:22:51.731Z,27.799999999999997
2018-07-02T07:24:51.674Z,27.200000000000003
2018-07-02T07:26:51.614Z,28.299999999999997
2018-07-02T07:28:51.946Z,27.799999999999997
2018-07-02T07:30:52.049Z,28.299999999999997
2018-07-02T07:32:52.104Z,28.299999999999997
2018-07-02T07:34:52.394Z,27.799999999999997
2018-07-02T07:36:52.372Z,27.799999999999997
2018-07-02T07:38:52.539Z,27.799999999999997
2018-07-02T07:40:52.682Z,27.799999999999997
2018-07-02T07:42:52.914Z,28.299999999999997
2018-07-02T07:44:52.852Z,27.799999999999997
2018-07-02T07:46:53.241Z,27.799999999999997
2018-07-02T07:48:53.256Z,28.299999999999997
2018-07-02T07:50:53.436Z,28.299999999999997
2018-07-02T07:52:53.466Z,28.299999999999997
2018-07-02T07:54:53.619Z,28.299999999999997
2018-07-02T07:56:53.604Z,28.299999999999997
2018-07-02T07:58:53.879Z,28.299999999999997
2018-07-02T08:00:54.017Z,28.299999999999997
2018-07-02T08:02:54.160Z,28.299999999999997
2018-07-02T08:04:54.437Z,27.799999999999997
2018-07-02T08:06:54.501Z,28.299999999999997
2018-07-02T08:08:54.479Z,28.299999999999997
2018-07-02T08:10:54.783Z,27.799999999999997
2018-07-02T08:12:54.879Z,27.799999999999997
2018-07-02T08:14:55.159Z,27.799999999999997
2018-07-02T08:16:55.413Z,27.799999999999997
2018-07-02T08:18:55.797Z,28.299999999999997
2018-07-02T08:20:55.566Z,27.799999999999997
2018-07-02T08:22:55.900Z,28.299999999999997
2018-07-02T08:24:55.982Z,27.200000000000003
2018-07-02T08:26:56.175Z,27.799999999999997
2018-07-02T08:28:56.308Z,28.299999999999997
2018-07-02T08:30:56.504Z,27.799999999999997
2018-07-02T08:32:56.637Z,28.299999999999997
2018-07-02T08:34:56.771Z,27.799999999999997
2018-07-02T08:36:56.831Z,27.799999999999997
2018-07-02T08:38:56.852Z,27.799999999999997
2018-07-02T08:40:57.132Z,28.299999999999997
2018-07-02T08:42:57.249Z,28.299999999999997
2018-07-02T08:44:58.323Z,28.299999999999997
2018-07-02T08:46:57.704Z,28.299999999999997
2018-07-02T08:48:57.877Z,27.799999999999997
2018-07-02T08:50:57.858Z,28.299999999999997
2018-07-02T08:52:58.438Z,28.299999999999997
2018-07-02T08:54:58.447Z,28.299999999999997
2018-07-02T08:56:58.331Z,28.299999999999997
2018-07-02T08:58:58.618Z,28.299999999999997
2018-07-02T09:00:58.754Z,27.799999999999997
2018-07-02T09:02:58.763Z,28.299999999999997
2018-07-02T09:04:59.219Z,28.299999999999997
2018-07-02T09:06:59.042Z,28.299999999999997
2018-07-02T09:08:59.407Z,28.299999999999997
2018-07-02T09:10:59.621Z,27.799999999999997
2018-07-02T09:12:59.382Z,28.299999999999997
2018-07-02T09:14:59.674Z,27.799999999999997
2018-07-02T09:16:59.852Z,28.299999999999997
2018-07-02T09:18:59.802Z,28.299999999999997
2018-07-02T09:21:00.122Z,28.299999999999997
2018-07-02T09:23:00.241Z,27.799999999999997
2018-07-02T09:25:00.246Z,28.299999999999997
2018-07-02T09:27:00.458Z,27.799999999999997
2018-07-02T09:29:00.617Z,28.299999999999997
2018-07-02T09:31:00.983Z,28.299999999999997
2018-07-02T09:33:00.953Z,28.299999999999997
2018-07-02T09:35:01.297Z,28.299999999999997
2018-07-02T09:37:01.230Z,28.299999999999997
2018-07-02T09:39:01.248Z,28.299999999999997
2018-07-02T09:41:01.931Z,28.299999999999997
2018-07-02T09:43:01.905Z,28.299999999999997
2018-07-02T09:45:02.290Z,28.299999999999997
2018-07-02T09:47:02.775Z,28.299999999999997
2018-07-02T09:49:02.471Z,28.299999999999997
2018-07-02T09:51:02.618Z,28.299999999999997
2018-07-02T09:53:03.105Z,28.9
2018-07-02T09:55:03.007Z,28.299999999999997
2018-07-02T09:57:03.408Z,28.299999999999997
2018-07-02T09:59:03.743Z,28.299999999999997
2018-07-02T10:01:03.761Z,28.299999999999997
2018-07-02T10:03:03.845Z,28.299999999999997
2018-07-02T10:05:03.983Z,28.299999999999997
2018-07-02T10:07:04.026Z,28.299999999999997
2018-07-02T10:09:04.070Z,28.299999999999997
2018-07-02T10:11:04.502Z,28.299999999999997
2018-07-02T10:13:04.576Z,28.299999999999997
2018-07-02T10:15:04.781Z,28.299999999999997
2018-07-02T10:17:04.771Z,28.299999999999997
2018-07-02T10:19:05.153Z,28.299999999999997
2018-07-02T10:21:05.132Z,28.299999999999997
2018-07-02T10:23:05.246Z,28.299999999999997
2018-07-02T10:25:05.442Z,28.299999999999997
2018-07-02T10:27:05.490Z,28.299999999999997
2018-07-02T10:29:05.750Z,27.799999999999997
2018-07-02T10:31:05.905Z,27.799999999999997
2018-07-02T10:33:05.953Z,27.799999999999997
2018-07-02T10:35:06.094Z,28.299999999999997
2018-07-02T10:37:06.209Z,27.799999999999997
2018-07-02T10:39:06.149Z,27.799999999999997
2018-07-02T10:41:06.559Z,27.799999999999997
2018-07-02T10:43:06.426Z,27.799999999999997
2018-07-02T10:45:06.715Z,28.299999999999997
2018-07-02T10:47:06.920Z,28.299999999999997
2018-07-02T10:49:06.993Z,27.799999999999997
2018-07-02T10:51:06.954Z,28.299999999999997
2018-07-02T10:53:07.237Z,28.299999999999997
2018-07-02T10:55:07.466Z,28.299999999999997
2018-07-02T10:57:07.727Z,28.299999999999997
2018-07-02T10:59:08.016Z,27.799999999999997
2018-07-02T11:01:07.746Z,28.299999999999997
2018-07-02T11:03:08.162Z,27.799999999999997
2018-07-02T11:05:08.169Z,28.299999999999997
2018-07-02T11:07:08.398Z,28.299999999999997
2018-07-02T11:09:08.627Z,27.799999999999997
2018-07-02T11:11:08.726Z,28.299999999999997
2018-07-02T11:13:08.892Z,28.299999999999997
2018-07-02T11:15:08.972Z,27.799999999999997
2018-07-02T11:17:09.082Z,28.299999999999997
2018-07-02T11:19:09.236Z,28.299999999999997
2018-07-02T11:21:09.396Z,28.299999999999997
2018-07-02T11:23:09.510Z,27.799999999999997
2018-07-02T11:25:09.872Z,28.299999999999997
2018-07-02T11:27:09.748Z,27.799999999999997
2018-07-02T11:29:09.962Z,28.299999999999997
2018-07-02T11:31:10.331Z,28.299999999999997
2018-07-02T11:33:10.361Z,28.299999999999997
2018-07-02T11:35:10.357Z,28.299999999999997
2018-07-02T11:37:10.529Z,28.299999999999997
2018-07-02T11:39:10.480Z,28.299999999999997
2018-07-02T11:41:11.022Z,28.9
2018-07-02T11:43:11.059Z,28.299999999999997
2018-07-02T11:45:10.952Z,28.299999999999997
2018-07-02T11:47:11.256Z,28.299999999999997
2018-07-02T11:49:11.403Z,28.299999999999997
2018-07-02T11:51:11.614Z,28.299999999999997
2018-07-02T11:53:12.082Z,28.299999999999997
2018-07-02T11:55:12.097Z,28.299999999999997
2018-07-02T11:57:12.032Z,28.299999999999997
2018-07-02T11:59:12.755Z,28.299999999999997
2018-07-02T12:01:12.465Z,27.799999999999997
2018-07-02T12:03:12.681Z,28.299999999999997
2018-07-02T12:05:13.074Z,28.299999999999997
2018-07-02T12:07:12.871Z,28.299999999999997
2018-07-02T12:09:13.161Z,28.299999999999997
2018-07-02T12:11:13.237Z,27.799999999999997
2018-07-02T12:13:13.269Z,28.299999999999997
2018-07-02T12:15:13.403Z,28.299999999999997
2018-07-02T12:17:13.626Z,28.299999999999997
2018-07-02T12:19:13.974Z,28.299999999999997
2018-07-02T12:21:13.911Z,28.299999999999997
2018-07-02T12:23:14.340Z,27.799999999999997
2018-07-02T12:25:14.322Z,28.299999999999997
2018-07-02T12:27:14.252Z,28.299999999999997
2018-07-02T12:29:14.812Z,28.299999999999997
2018-07-02T12:31:14.640Z,28.299999999999997
2018-07-02T12:33:14.931Z,28.299999999999997
2018-07-02T12:35:15.013Z,28.299999999999997
2018-07-02T12:37:15.227Z,28.299999999999997
2018-07-02T12:39:15.553Z,28.9
2018-07-02T12:41:15.446Z,28.299999999999997
2018-07-02T12:43:15.786Z,28.299999999999997
2018-07-02T12:45:15.804Z,28.299999999999997
2018-07-02T12:47:15.925Z,28.299999999999997
2018-07-02T12:49:16.102Z,28.299999999999997
2018-07-02T12:51:16.264Z,28.299999999999997
2018-07-02T12:53:16.253Z,28.299999999999997
2018-07-02T12:55:16.737Z,28.299999999999997
2018-07-02T12:57:16.600Z,28.299999999999997
2018-07-02T12:59:16.716Z,27.799999999999997
2018-07-02T13:01:16.887Z,28.299999999999997
2018-07-02T13:03:16.958Z,28.299999999999997
2018-07-02T13:05:16.958Z,27.799999999999997
2018-07-02T13:07:17.272Z,28.299999999999997
2018-07-02T13:09:17.423Z,28.299999999999997
2018-07-02T13:11:17.513Z,28.299999999999997
2018-07-02T13:13:17.498Z,28.299999999999997
2018-07-02T13:15:17.810Z,28.299999999999997
2018-07-02T13:17:17.871Z,28.299999999999997
2018-07-02T13:19:18.332Z,28.299999999999997
2018-07-02T13:21:18.226Z,28.299999999999997
2018-07-02T13:23:18.299Z,27.799999999999997
2018-07-02T13:25:18.454Z,28.299999999999997
2018-07-02T13:27:18.566Z,28.299999999999997
2018-07-02T13:29:18.653Z,27.799999999999997
2018-07-02T13:31:18.802Z,28.9
2018-07-02T13:33:18.941Z,28.9
2018-07-02T13:35:18.895Z,27.799999999999997
2018-07-02T13:37:19.352Z,28.299999999999997
2018-07-02T13:39:19.149Z,28.299999999999997
2018-07-02T13:41:19.357Z,27.799999999999997
2018-07-02T13:43:19.640Z,27.799999999999997
2018-07-02T13:45:19.576Z,27.799999999999997
2018-07-02T13:47:19.913Z,27.799999999999997
2018-07-02T13:49:20.016Z,27.200000000000003
2018-07-02T13:51:20.166Z,27.200000000000003
2018-07-02T13:53:20.334Z,27.200000000000003
2018-07-02T13:55:21.706Z,27.799999999999997
2018-07-02T13:57:20.556Z,27.799999999999997
2018-07-02T13:59:20.545Z,28.299999999999997
2018-07-02T14:01:21.362Z,28.299999999999997
2018-07-02T14:03:21.102Z,28.299999999999997
2018-07-02T14:05:21.090Z,28.299999999999997
2018-07-02T14:07:21.256Z,28.299999999999997
2018-07-02T14:09:21.309Z,27.200000000000003
2018-07-02T14:11:21.428Z,27.799999999999997
2018-07-02T14:13:21.649Z,28.299999999999997
2018-07-02T14:15:21.578Z,27.799999999999997
2018-07-02T14:17:21.669Z,27.200000000000003
2018-07-02T14:19:21.998Z,26.200000000000003
2018-07-02T14:21:22.148Z,26.200000000000003
2018-07-02T14:23:22.348Z,27.200000000000003
2018-07-02T14:25:22.431Z,25.1
2018-07-02T14:27:22.733Z,26.200000000000003
2018-07-02T14:29:22.573Z,26.200000000000003
2018-07-02T14:31:22.966Z,27.200000000000003
2018-07-02T14:33:22.886Z,27.200000000000003
2018-07-02T14:35:23.450Z,27.200000000000003
2018-07-02T14:37:23.786Z,27.200000000000003
2018-07-02T14:39:23.588Z,27.799999999999997
2018-07-02T14:41:24.058Z,27.200000000000003
2018-07-02T14:43:24.246Z,26.700000000000003
2018-07-02T14:45:24.301Z,27.200000000000003
2018-07-02T14:47:24.363Z,27.200000000000003
2018-07-02T14:49:24.464Z,28.299999999999997
2018-07-02T14:51:29.629Z,27.799999999999997
2018-07-02T14:53:24.462Z,27.799999999999997
2018-07-02T14:55:24.929Z,27.799999999999997
2018-07-02T14:57:24.768Z,27.200000000000003
2018-07-02T14:59:25.040Z,27.799999999999997
2018-07-02T15:01:25.320Z,27.799999999999997
2018-07-02T15:03:25.299Z,27.799999999999997
2018-07-02T15:05:25.552Z,27.200000000000003
2018-07-02T15:07:25.615Z,27.799999999999997
2018-07-02T15:09:25.888Z,27.200000000000003
2018-07-02T15:11:25.859Z,28.299999999999997
2018-07-02T15:13:26.166Z,28.299999999999997
2018-07-02T15:15:26.271Z,27.799999999999997
2018-07-02T15:17:26.408Z,27.200000000000003
2018-07-02T15:19:26.529Z,27.799999999999997
2018-07-02T15:21:26.532Z,26.700000000000003
2018-07-02T15:23:27.078Z,26.700000000000003
2018-07-02T15:25:26.882Z,27.200000000000003
2018-07-02T15:27:27.029Z,27.200000000000003
2018-07-02T15:29:27.330Z,27.799999999999997
2018-07-02T15:31:27.575Z,27.799999999999997
2018-07-02T15:33:27.579Z,27.799999999999997
2018-07-02T15:35:27.549Z,27.799999999999997
2018-07-02T15:37:27.840Z,27.200000000000003
2018-07-02T15:39:27.822Z,27.200000000000003
2018-07-02T15:41:28.119Z,27.200000000000003
2018-07-02T15:43:28.335Z,27.799999999999997
2018-07-02T15:45:28.393Z,27.799999999999997
2018-07-02T15:47:28.502Z,28.299999999999997
2018-07-02T15:49:28.536Z,28.299999999999997
2018-07-02T15:51:28.816Z,28.299999999999997
2018-07-02T15:53:28.748Z,27.200000000000003
2018-07-02T15:55:28.870Z,27.200000000000003
2018-07-02T15:57:29.213Z,26.200000000000003
2018-07-02T15:59:29.462Z,27.200000000000003
2018-07-02T16:01:29.401Z,27.799999999999997
2018-07-02T16:03:29.892Z,27.799999999999997
2018-07-02T16:05:29.809Z,27.200000000000003
2018-07-02T16:07:29.981Z,27.200000000000003
2018-07-02T16:09:30.393Z,27.200000000000003
2018-07-02T16:11:30.202Z,28.299999999999997
2018-07-02T16:13:30.332Z,27.200000000000003
2018-07-02T16:15:30.750Z,27.799999999999997
2018-07-02T16:17:30.708Z,27.200000000000003
2018-07-02T16:19:31.119Z,27.799999999999997
2018-07-02T16:21:31.168Z,27.200000000000003
2018-07-02T16:23:31.072Z,26.700000000000003
2018-07-02T16:25:31.155Z,26.700000000000003
2018-07-02T16:27:31.432Z,25.6
2018-07-02T16:29:31.885Z,26.200000000000003
2018-07-02T16:31:31.936Z,26.200000000000003
2018-07-02T16:33:32.122Z,25.1
2018-07-02T16:35:32.280Z,25.1
2018-07-02T16:37:32.396Z,25.6
2018-07-02T16:39:32.708Z,25.6
2018-07-02T16:41:32.956Z,25.1
2018-07-02T16:43:32.666Z,25.6
2018-07-02T16:45:33.000Z,25.6
2018-07-02T16:47:33.076Z,26.200000000000003
2018-07-02T16:49:33.091Z,26.200000000000003
2018-07-02T16:51:33.689Z,26.700000000000003
2018-07-02T16:53:33.885Z,26.700000000000003
2018-07-02T16:55:33.883Z,25.1
2018-07-02T16:57:33.995Z,24.5
2018-07-02T16:59:34.166Z,25.1
2018-07-02T17:01:34.495Z,23.5
2018-07-02T17:03:34.315Z,24
2018-07-02T17:05:34.865Z,25.6
2018-07-02T17:07:35.017Z,26.200000000000003
2018-07-02T17:09:35.462Z,25.1
2018-07-02T17:11:35.357Z,24.5
2018-07-02T17:13:35.495Z,25.1
2018-07-02T17:15:35.761Z,25.6
2018-07-02T17:17:35.537Z,25.1
2018-07-02T17:19:36.205Z,25.6
2018-07-02T17:21:36.024Z,22.9
2018-07-02T17:23:35.955Z,22.9
2018-07-02T17:25:36.218Z,22.9
2018-07-02T17:27:36.506Z,22.9
2018-07-02T17:29:36.564Z,24.5
2018-07-02T17:31:36.738Z,24
2018-07-02T17:33:37.156Z,25.1
2018-07-02T17:35:36.757Z,25.1
2018-07-02T17:37:37.092Z,24.5
2018-07-02T17:39:37.522Z,23.5
2018-07-02T17:41:37.270Z,23.5
2018-07-02T17:43:37.391Z,23.5
2018-07-02T17:45:37.648Z,25.1
2018-07-02T17:47:37.629Z,25.1
2018-07-02T17:49:37.941Z,24.5
2018-07-02T17:51:38.301Z,24
2018-07-02T17:53:38.139Z,24
2018-07-02T17:55:38.206Z,25.1
2018-07-02T17:57:38.453Z,25.1
2018-07-02T17:59:38.724Z,25.1
2018-07-02T18:01:38.859Z,24
2018-07-02T18:03:39.048Z,22.9
2018-07-02T18:05:38.873Z,22.9
2018-07-02T18:07:38.938Z,22.9
2018-07-02T18:09:39.419Z,22.9
2018-07-02T18:11:39.414Z,23.5
2018-07-02T18:13:39.350Z,23.5
2018-07-02T18:15:39.702Z,22.9
2018-07-02T18:17:39.811Z,24
2018-07-02T18:19:40.001Z,24
2018-07-02T18:21:40.248Z,23.5
2018-07-02T18:23:40.427Z,24
2018-07-02T18:25:40.505Z,23.5
2018-07-02T18:27:40.986Z,24
2018-07-02T18:29:40.785Z,24.5
2018-07-02T18:31:40.929Z,25.1
2018-07-02T18:33:41.529Z,24
2018-07-02T18:35:41.388Z,22.9
2018-07-02T18:37:41.545Z,24.5
2018-07-02T18:39:41.743Z,25.1
2018-07-02T18:41:41.662Z,24.5
2018-07-02T18:43:41.840Z,24
2018-07-02T18:45:42.280Z,23.5
2018-07-02T18:47:42.355Z,24.5
2018-07-02T18:49:42.255Z,25.1
2018-07-02T18:51:42.560Z,25.6
2018-07-02T18:53:42.654Z,25.6
2018-07-02T18:55:42.846Z,26.200000000000003
2018-07-02T18:57:43.292Z,26.200000000000003